aviador You're here:

KLFT Decoded Metar

LAFAYETTE in LA, USA
Report Time2018-01-18 10:53:00
UTC Time2018-01-18 11:46:11
Flight Rules vfr VFR
Wind040° at 04 kt
W.Decomp.*RWY 04: 4.0 kt HW 0.2 kt LCW
RWY 11: 1.2 kt HW 3.8 kt LCW
W.Rank040° ranks 7
Current wind is below 040° avg. (5.7)
Visibility9999 m
Phenomena:N/A
Clouds:N/A
Expected CloudBase > 400 ft AGL from Temp-Dew spread
CeilingNone
Temp-8°C (ISA -23)
Dew Point-9°C (93% RH)
AAT-12.4°C
QNH1036 hPa
Density Alt-3,560 ft
Elevation36 ft
Report Wrong Elevation
Raw Report
KLFT 181053Z AUTO 04004KT 10SM CLR M08/M09 A3058 RMK AO2 SLP356
T10781094 $=

Extra information for KLFT:More info

Metar Taf Metar & Taf Last 4 Metars F.Rules Stats Wind Profile Meteogram Temp Stats Airport Information Weather charts Add Link Nearby VenuesMetar ALERT Operation Metar Decoded Social comments

AIRNAV info for KLFT